Time;durP1;ratioP1;P1;durP2;ratioP2;P2;SDS_P1;SDS_P2;PMS_P1;PMS_P2;Temp;Humidity;BMP_temperature;BMP_pressure;BME280_temperature;BME280_humidity;BME280_pressure;Samples;Min_cycle;Max_cycle;Signal;HPM_P1;HPM_P2
2023/06/21 00:00:30;;;;;;;10.40;9.47;;;;;;;19.73;88.89;95097.34;5073417;28;20480;-88
2023/06/21 00:02:57;;;;;;;10.77;9.43;;;;;;;19.64;88.15;95087.75;5075132;28;20440;-90
2023/06/21 00:05:24;;;;;;;12.00;9.47;;;;;;;19.58;88.52;95088.50;5076988;28;20446;-88
2023/06/21 00:07:52;;;;;;;10.23;9.23;;;;;;;19.58;88.48;95085.84;5041963;28;20436;-88
2023/06/21 00:10:20;;;;;;;9.70;8.80;;;;;;;19.60;90.71;95088.31;5077088;28;20460;-88
2023/06/21 00:12:47;;;;;;;11.60;8.90;;;;;;;19.53;89.22;95088.22;5077076;28;20434;-88
2023/06/21 00:15:14;;;;;;;10.33;9.43;;;;;;;19.49;89.37;95084.22;5058749;28;20443;-88
2023/06/21 00:17:42;;;;;;;9.57;8.67;;;;;;;19.56;88.63;95079.03;5077166;28;20526;-88
2023/06/21 00:20:10;;;;;;;11.10;9.43;;;;;;;19.52;88.44;95085.69;5076697;28;20441;-87
2023/06/21 00:22:37;;;;;;;9.90;9.00;;;;;;;19.49;89.67;95079.72;5075328;28;20515;-88
2023/06/21 00:25:05;;;;;;;10.77;9.70;;;;;;;19.46;88.60;95079.28;5077024;28;20478;-89
2023/06/21 00:27:32;;;;;;;12.80;10.27;;;;;;;19.56;88.37;95085.19;5076891;28;20480;-88
2023/06/21 00:29:58;;;;;;;10.13;9.13;;;;;;;19.63;88.21;95086.13;5077197;28;20444;-88
2023/06/21 00:32:25;;;;;;;14.23;9.60;;;;;;;19.68;87.37;95083.75;5077426;28;20427;-88
2023/06/21 00:34:53;;;;;;;11.70;9.63;;;;;;;19.76;86.71;95080.19;5076424;28;20437;-88
2023/06/21 00:40:42;;;;;;;10.70;9.50;;;;;;;19.80;86.47;95081.47;5069780;28;20771;-88
2023/06/21 00:43:09;;;;;;;10.93;9.80;;;;;;;19.79;85.71;95085.16;5056609;28;20907;-89
2023/06/21 00:45:40;;;;;;;14.83;9.50;;;;;;;19.81;85.83;95088.44;5056454;28;20437;-88
2023/06/21 00:48:07;;;;;;;12.10;9.83;;;;;;;19.82;85.63;95094.59;5056726;28;20438;-88
2023/06/21 00:50:38;;;;;;;14.80;9.90;;;;;;;19.82;86.99;95083.94;5021576;28;20464;-89
2023/06/21 00:53:05;;;;;;;11.20;10.10;;;;;;;19.78;87.53;95089.66;5056914;28;20861;-89
2023/06/21 00:55:33;;;;;;;11.03;9.87;;;;;;;19.77;86.85;95089.81;5056304;28;20436;-88
2023/06/21 00:58:00;;;;;;;11.17;10.07;;;;;;;19.69;86.48;95085.41;5056836;28;20478;-88
2023/06/21 01:00:27;;;;;;;11.47;10.37;;;;;;;19.57;87.21;95086.84;5056224;28;20469;-89
2023/06/21 01:02:56;;;;;;;16.50;11.10;;;;;;;19.45;88.19;95088.25;5055818;28;20460;-86
2023/06/21 01:05:25;;;;;;;10.53;9.57;;;;;;;19.39;87.55;95083.66;5056033;28;20431;-88
2023/06/21 01:08:11;;;;;;;15.40;12.00;;;;;;;19.34;87.90;95092.16;5056008;28;20460;-89
2023/06/21 01:10:51;;;;;;;11.53;10.33;;;;;;;19.27;88.01;95085.91;5055659;28;20973;-89
2023/06/21 01:13:30;;;;;;;11.70;10.50;;;;;;;19.23;89.08;95095.25;5055825;28;20486;-89
2023/06/21 01:16:04;;;;;;;14.13;12.00;;;;;;;19.16;89.37;95089.81;5055493;28;20445;-89
2023/06/21 01:18:32;;;;;;;11.60;10.50;;;;;;;19.02;89.29;95082.59;5055413;28;20475;-88
2023/06/21 01:21:03;;;;;;;11.97;10.80;;;;;;;18.87;90.41;95084.38;5055838;28;20494;-88
2023/06/21 01:23:52;;;;;;;14.80;11.20;;;;;;;18.86;90.82;95080.06;5055666;28;20451;-88
2023/06/21 01:26:32;;;;;;;11.07;10.07;;;;;;;18.98;90.83;95083.97;5055172;28;20494;-89
2023/06/21 01:29:12;;;;;;;12.20;10.90;;;;;;;18.91;90.23;95075.03;5055305;28;20799;-89
2023/06/21 01:31:42;;;;;;;10.63;9.43;;;;;;;18.90;90.72;95080.53;5055167;28;20479;-87
2023/06/21 01:34:12;;;;;;;14.70;11.00;;;;;;;18.90;90.71;95081.34;5055059;28;20991;-88
2023/06/21 01:36:40;;;;;;;12.87;10.57;;;;;;;18.98;90.53;95078.63;5055317;28;20508;-89
2023/06/21 01:39:09;;;;;;;15.00;11.07;;;;;;;18.97;90.44;95084.97;5055032;28;20521;-89
2023/06/21 01:41:36;;;;;;;13.80;9.57;;;;;;;18.92;90.20;95087.31;5053503;28;20447;-89
2023/06/21 01:44:04;;;;;;;19.47;11.47;;;;;;;18.95;91.15;95091.47;5055308;28;20440;-89
2023/06/21 01:46:32;;;;;;;11.63;10.10;;;;;;;18.97;90.52;95084.13;5054887;28;20444;-88
2023/06/21 01:49:00;;;;;;;13.03;9.80;;;;;;;18.97;89.56;95084.97;5036931;28;20445;-88
2023/06/21 01:51:28;;;;;;;12.07;9.77;;;;;;;18.90;89.47;95094.66;5055134;28;20432;-87
2023/06/21 01:53:56;;;;;;;14.83;11.20;;;;;;;18.85;89.86;95095.19;5055187;28;20443;-88
2023/06/21 01:56:26;;;;;;;11.43;10.17;;;;;;;18.91;89.50;95098.13;5054972;28;20822;-88
2023/06/21 01:58:53;;;;;;;18.40;11.00;;;;;;;18.90;90.08;95094.66;5055052;28;20578;-89
2023/06/21 02:01:20;;;;;;;11.93;10.70;;;;;;;18.90;89.54;95101.81;5055043;28;20993;-89
2023/06/21 02:03:52;;;;;;;12.50;10.67;;;;;;;18.97;89.96;95102.75;5036775;28;20807;-89
2023/06/21 02:06:21;;;;;;;10.20;9.30;;;;;;;18.99;89.79;95106.88;5054891;28;20455;-89
2023/06/21 02:08:49;;;;;;;11.73;10.40;;;;;;;18.97;89.16;95100.91;5054670;28;20500;-89
2023/06/21 02:11:17;;;;;;;11.77;10.57;;;;;;;19.00;89.07;95103.22;5054879;28;20857;-88
2023/06/21 02:13:48;;;;;;;14.00;10.60;;;;;;;18.95;89.04;95102.09;5054473;28;20804;-89
2023/06/21 02:16:15;;;;;;;12.40;11.20;;;;;;;18.94;89.16;95095.97;5054974;28;20455;-88
2023/06/21 02:18:42;;;;;;;12.20;10.87;;;;;;;19.01;89.15;95093.41;5054548;28;20479;-90
2023/06/21 02:21:11;;;;;;;12.77;10.60;;;;;;;18.96;89.66;95101.91;5054519;28;20449;-89
2023/06/21 02:23:38;;;;;;;10.67;9.57;;;;;;;18.90;89.75;95099.16;5054686;28;20920;-88
2023/06/21 02:26:05;;;;;;;15.00;10.33;;;;;;;18.86;89.71;95098.66;5053944;28;20525;-89
2023/06/21 02:28:32;;;;;;;12.80;11.27;;;;;;;18.82;90.39;95108.00;5054131;28;20435;-89
2023/06/21 02:30:59;;;;;;;15.17;11.57;;;;;;;18.75;90.94;95104.38;5054122;28;20957;-89
2023/06/21 02:33:26;;;;;;;11.80;10.40;;;;;;;18.72;91.53;95099.41;5054218;28;20451;-88
2023/06/21 02:35:52;;;;;;;13.23;10.10;;;;;;;18.66;91.26;95108.09;5054262;28;20466;-89
2023/06/21 02:38:20;;;;;;;13.10;10.33;;;;;;;18.57;91.81;95108.09;5054187;28;20483;-89
2023/06/21 02:40:49;;;;;;;12.17;10.90;;;;;;;18.54;91.70;95113.75;5054214;28;20434;-87
2023/06/21 02:43:16;;;;;;;11.57;10.03;;;;;;;18.53;92.28;95121.91;5052336;28;20432;-88
2023/06/21 02:45:42;;;;;;;13.03;10.70;;;;;;;18.53;92.04;95114.78;5054725;28;20436;-89
2023/06/21 02:48:09;;;;;;;11.90;10.20;;;;;;;18.58;92.54;95122.22;5053817;28;20448;-89
2023/06/21 02:50:36;;;;;;;14.53;12.20;;;;;;;18.59;92.35;95126.53;5052167;28;20491;-89
2023/06/21 02:53:03;;;;;;;12.33;11.13;;;;;;;18.61;91.99;95123.69;5053807;28;20449;-89
2023/06/21 02:55:32;;;;;;;12.70;10.50;;;;;;;18.65;93.03;95122.38;5053724;28;20995;-90
2023/06/21 02:57:59;;;;;;;13.17;10.30;;;;;;;18.72;92.01;95139.28;5054181;28;21000;-89
2023/06/21 03:00:28;;;;;;;12.10;10.80;;;;;;;18.76;91.81;95132.63;5053642;28;20446;-89
2023/06/21 03:02:59;;;;;;;13.27;11.80;;;;;;;18.84;90.95;95144.06;5053541;28;20937;-88
2023/06/21 03:05:27;;;;;;;18.30;10.63;;;;;;;18.89;89.80;95151.50;5054096;28;20432;-89
2023/06/21 03:07:53;;;;;;;11.23;10.03;;;;;;;18.94;89.76;95151.81;5053704;28;20444;-90
2023/06/21 03:10:21;;;;;;;15.63;10.90;;;;;;;18.98;90.82;95147.78;5053862;28;20439;-90
2023/06/21 03:12:49;;;;;;;12.40;10.93;;;;;;;19.02;90.64;95150.91;5051988;28;20445;-90
2023/06/21 03:15:16;;;;;;;12.50;11.30;;;;;;;19.01;90.46;95152.75;5053486;28;20964;-83
2023/06/21 03:17:43;;;;;;;14.10;11.50;;;;;;;19.05;90.03;95151.38;5053675;28;20772;-84
2023/06/21 03:20:12;;;;;;;13.53;10.80;;;;;;;19.10;89.53;95156.22;5052924;28;20448;-82
2023/06/21 03:22:41;;;;;;;15.50;10.90;;;;;;;19.14;91.56;95157.50;5052998;28;20484;-80
2023/06/21 03:25:10;;;;;;;13.30;11.60;;;;;;;19.22;91.31;95159.28;5053488;28;20438;-79
2023/06/21 03:27:37;;;;;;;13.43;11.30;;;;;;;19.29;89.44;95155.72;5052186;28;20479;-82
2023/06/21 03:30:07;;;;;;;13.33;10.67;;;;;;;19.40;89.32;95157.19;5052305;28;20500;-80
2023/06/21 03:32:34;;;;;;;15.67;10.07;;;;;;;19.52;88.99;95153.06;5052327;28;20524;-80
2023/06/21 03:35:01;;;;;;;12.60;11.30;;;;;;;19.63;88.37;95168.66;5052241;28;20445;-80
2023/06/21 03:37:28;;;;;;;14.77;10.23;;;;;;;19.80;87.61;95166.69;5052755;28;20446;-80
2023/06/21 03:39:55;;;;;;;12.57;11.20;;;;;;;20.00;86.89;95167.03;5056218;28;20486;-81
2023/06/21 03:42:21;;;;;;;11.93;10.73;;;;;;;20.22;85.80;95168.78;5021957;28;20810;-80
2023/06/21 03:44:48;;;;;;;11.57;9.73;;;;;;;20.45;84.66;95159.91;5057640;28;20462;-80
2023/06/21 04:05:01;;;;;;;19.23;12.30;;;;;;;21.65;78.14;95163.78;5102445;27;21039;-79
2023/06/21 04:07:28;;;;;;;10.10;9.20;;;;;;;21.73;80.40;95155.66;5089329;28;20455;-77
2023/06/21 04:09:54;;;;;;;11.47;10.40;;;;;;;21.92;78.58;95162.19;5085818;28;20460;-82
2023/06/21 04:12:22;;;;;;;14.27;11.63;;;;;;;22.10;76.48;95169.78;5090824;28;20454;-81
2023/06/21 04:14:48;;;;;;;12.13;10.83;;;;;;;22.08;75.83;95161.94;5091363;28;20452;-82
2023/06/21 04:17:15;;;;;;;11.97;10.67;;;;;;;22.29;76.31;95170.94;5098913;28;20444;-81
2023/06/21 04:19:42;;;;;;;11.43;10.43;;;;;;;22.54;75.57;95178.28;5090911;28;20818;-81
2023/06/21 04:22:10;;;;;;;12.47;11.27;;;;;;;22.78;74.70;95176.97;5091302;28;20453;-79
2023/06/21 04:24:37;;;;;;;12.63;10.40;;;;;;;22.97;73.63;95186.16;5090816;28;20433;-79
2023/06/21 04:27:05;;;;;;;11.83;10.73;;;;;;;23.05;73.17;95187.84;5091335;28;20919;-80
2023/06/21 04:29:36;;;;;;;16.40;10.37;;;;;;;23.23;72.17;95187.31;5090829;28;20478;-79
2023/06/21 04:32:03;;;;;;;14.10;9.97;;;;;;;23.35;70.89;95191.03;5090262;28;20833;-80
2023/06/21 04:34:30;;;;;;;11.07;10.07;;;;;;;23.42;71.09;95198.09;5055319;28;20477;-79
2023/06/21 04:36:57;;;;;;;15.83;10.37;;;;;;;23.51;68.88;95196.03;5090746;28;20456;-78
2023/06/21 04:39:25;;;;;;;9.77;8.97;;;;;;;23.61;68.20;95199.19;5090639;28;20446;-81
2023/06/21 04:41:53;;;;;;;11.83;9.60;;;;;;;23.72;67.41;95197.78;5090972;28;20841;-79
2023/06/21 04:44:20;;;;;;;10.60;9.50;;;;;;;23.34;68.64;95192.91;5090688;28;20441;-78
2023/06/21 04:46:46;;;;;;;10.37;9.47;;;;;;;23.38;68.30;95180.75;5090573;28;20447;-78
2023/06/21 04:49:17;;;;;;;9.83;9.03;;;;;;;23.55;69.38;95183.91;5090151;28;20442;-80
2023/06/21 04:51:44;;;;;;;14.13;10.40;;;;;;;23.38;68.48;95186.09;5090242;28;20449;-79
2023/06/21 04:54:11;;;;;;;9.90;8.97;;;;;;;23.57;69.50;95183.72;5090138;28;20522;-81
2023/06/21 04:56:39;;;;;;;11.33;10.20;;;;;;;23.86;68.98;95186.03;5089980;28;20454;-80
2023/06/21 04:59:08;;;;;;;16.40;9.93;;;;;;;24.10;66.19;95192.66;5089975;28;20442;-79
2023/06/21 05:01:35;;;;;;;13.43;9.90;;;;;;;24.36;65.23;95189.16;5071449;28;20447;-80
2023/06/21 05:04:01;;;;;;;13.10;9.93;;;;;;;24.52;63.86;95188.72;5099729;28;20475;-79
2023/06/21 05:06:28;;;;;;;11.23;10.10;;;;;;;24.73;64.25;95198.41;5096543;28;20452;-79
2023/06/21 05:08:56;;;;;;;11.43;10.37;;;;;;;25.09;64.52;95192.53;5096211;28;20807;-80
2023/06/21 05:11:23;;;;;;;10.47;9.37;;;;;;;25.48;63.39;95185.34;5061483;28;20918;-80
2023/06/21 05:13:51;;;;;;;10.47;9.47;;;;;;;25.75;62.20;95191.44;5096517;28;20490;-81
2023/06/21 05:16:18;;;;;;;11.10;9.77;;;;;;;25.99;60.95;95192.47;5096486;28;20439;-78
2023/06/21 05:18:45;;;;;;;11.90;10.37;;;;;;;26.17;60.20;95190.69;5096183;28;20933;-80
2023/06/21 05:21:12;;;;;;;11.47;10.37;;;;;;;26.22;59.74;95176.56;5096274;28;20448;-81
2023/06/21 05:23:38;;;;;;;11.10;10.00;;;;;;;26.20;59.93;95189.44;5096163;28;20447;-80
2023/06/21 05:26:05;;;;;;;11.93;10.70;;;;;;;26.18;60.53;95180.75;5096350;28;20458;-81
2023/06/21 05:28:32;;;;;;;13.57;10.23;;;;;;;26.24;61.62;95185.25;5096275;28;20460;-81
2023/06/21 05:31:00;;;;;;;10.27;9.07;;;;;;;25.64;62.74;95184.81;5060718;28;20455;-80
2023/06/21 05:33:27;;;;;;;10.60;9.57;;;;;;;26.16;62.51;95178.28;5095689;28;20499;-80
2023/06/21 05:35:54;;;;;;;10.33;9.33;;;;;;;26.21;60.43;95177.63;5096150;28;20451;-82
2023/06/21 05:38:20;;;;;;;10.87;9.87;;;;;;;26.29;61.10;95187.28;5095723;28;20447;-80
2023/06/21 05:40:47;;;;;;;11.43;10.30;;;;;;;26.38;60.60;95181.44;5095870;28;20931;-80
2023/06/21 05:43:14;;;;;;;17.10;10.90;;;;;;;26.38;60.35;95178.75;5095799;28;20508;-81
2023/06/21 05:45:41;;;;;;;13.20;11.80;;;;;;;26.09;59.89;95174.00;5095911;28;20451;-80
2023/06/21 05:48:09;;;;;;;10.77;9.70;;;;;;;26.34;61.46;95174.88;5076743;28;20771;-81
2023/06/21 05:50:36;;;;;;;11.17;10.07;;;;;;;26.54;61.86;95180.03;5095639;28;20452;-79
2023/06/21 05:53:02;;;;;;;12.70;10.60;;;;;;;26.59;62.63;95176.69;5095568;28;20484;-80
2023/06/21 05:55:29;;;;;;;12.93;10.90;;;;;;;26.65;60.08;95183.91;5095907;28;20448;-87
2023/06/21 05:57:56;;;;;;;16.27;9.97;;;;;;;26.93;61.98;95178.00;5095631;28;20462;-80
2023/06/21 06:00:23;;;;;;;12.80;10.37;;;;;;;27.09;60.47;95169.34;5095514;28;20447;-87
2023/06/21 06:02:50;;;;;;;19.57;12.33;;;;;;;27.37;59.28;95172.31;5095972;28;20470;-82
2023/06/21 06:05:18;;;;;;;13.03;10.07;;;;;;;27.26;57.37;95172.25;5056523;28;20459;-82
2023/06/21 06:07:45;;;;;;;14.93;10.10;;;;;;;27.27;58.03;95163.94;5040371;28;20519;-83
2023/06/21 06:10:12;;;;;;;11.80;10.40;;;;;;;27.36;57.74;95170.66;5075943;28;20437;-83
2023/06/21 06:12:39;;;;;;;11.70;10.70;;;;;;;27.37;56.52;95168.78;5057252;28;20444;-83
2023/06/21 06:15:07;;;;;;;13.83;10.77;;;;;;;27.05;57.52;95163.56;5083291;28;20471;-84
2023/06/21 06:17:33;;;;;;;14.83;11.77;;;;;;;26.92;58.10;95160.19;5094520;28;20436;-82
2023/06/21 06:23:23;;;;;;;11.30;9.07;;;;;;;26.99;58.99;95161.78;5055936;28;20778;-79
2023/06/21 06:25:51;;;;;;;13.43;12.07;;;;;;;26.95;58.54;95160.56;5067134;28;20437;-81
2023/06/21 06:28:19;;;;;;;11.97;10.10;;;;;;;27.05;58.57;95160.88;5075294;28;20449;-81
2023/06/21 06:30:45;;;;;;;13.27;11.67;;;;;;;26.85;59.97;95165.63;5071248;28;20464;-79
2023/06/21 06:33:12;;;;;;;12.63;11.07;;;;;;;26.65;61.06;95165.03;5063792;28;20990;-79
2023/06/21 06:35:39;;;;;;;11.10;9.77;;;;;;;27.11;61.06;95159.16;5073072;28;20885;-80
2023/06/21 06:38:06;;;;;;;11.03;9.93;;;;;;;27.25;58.13;95159.81;5063182;28;20448;-80
2023/06/21 06:40:35;;;;;;;21.83;11.00;;;;;;;27.46;59.68;95159.31;5058558;28;20970;-80
2023/06/21 06:43:02;;;;;;;15.10;10.90;;;;;;;27.72;55.75;95161.69;5068039;28;20453;-80
2023/06/21 06:45:29;;;;;;;11.87;10.67;;;;;;;27.85;61.26;95157.16;5054600;28;20450;-80
2023/06/21 06:47:56;;;;;;;13.97;11.17;;;;;;;28.14;57.76;95158.97;5054189;28;20445;-80
2023/06/21 06:50:23;;;;;;;12.50;11.03;;;;;;;28.31;56.21;95165.34;5035854;28;20789;-87
2023/06/21 06:52:52;;;;;;;13.73;12.20;;;;;;;28.24;58.51;95159.25;5036215;28;20452;-87
2023/06/21 06:55:18;;;;;;;13.60;11.60;;;;;;;28.54;56.04;95163.72;5054983;28;20488;-87
2023/06/21 06:57:47;;;;;;;17.50;12.50;;;;;;;28.72;56.14;95163.59;5054108;28;20441;-86
2023/06/21 07:00:15;;;;;;;15.80;11.07;;;;;;;28.44;56.37;95158.09;5054369;28;20452;-84
2023/06/21 07:02:42;;;;;;;12.30;10.87;;;;;;;28.26;57.24;95151.72;5035778;28;20438;-85
2023/06/21 07:05:09;;;;;;;13.87;11.90;;;;;;;28.40;56.86;95160.44;5054561;28;20445;-86
2023/06/21 07:07:36;;;;;;;13.57;10.90;;;;;;;27.77;58.33;95159.13;5054372;28;20489;-81
2023/06/21 07:10:02;;;;;;;12.53;11.23;;;;;;;28.09;58.32;95166.94;5054399;28;20438;-84
2023/06/21 07:12:29;;;;;;;14.97;11.50;;;;;;;28.08;57.87;95155.34;5054385;28;20449;-83
2023/06/21 07:14:58;;;;;;;15.27;11.80;;;;;;;28.15;57.66;95160.63;5053782;28;21016;-83
2023/06/21 07:17:26;;;;;;;12.50;11.10;;;;;;;28.35;56.18;95161.16;5054586;28;20533;-83
2023/06/21 07:19:52;;;;;;;13.23;11.93;;;;;;;28.61;56.34;95145.50;5019618;28;20940;-83
2023/06/21 07:22:19;;;;;;;11.77;9.93;;;;;;;28.95;57.03;95144.69;5035770;28;20433;-84
2023/06/21 07:24:46;;;;;;;17.80;13.00;;;;;;;29.07;53.93;95141.13;5054343;28;20792;-83
2023/06/21 07:27:13;;;;;;;13.30;11.97;;;;;;;28.88;55.69;95137.75;5053538;28;20461;-86
2023/06/21 07:29:40;;;;;;;14.50;11.13;;;;;;;29.16;55.79;95135.09;5054139;28;20743;-85
2023/06/21 07:32:09;;;;;;;13.10;11.80;;;;;;;29.15;54.10;95138.06;5035377;28;20793;-86
2023/06/21 07:34:36;;;;;;;20.40;11.00;;;;;;;29.20;54.25;95133.59;5034656;28;20485;-81
2023/06/21 07:37:02;;;;;;;12.40;11.20;;;;;;;29.41;54.12;95132.09;5053546;28;20515;-81
2023/06/21 07:39:29;;;;;;;12.53;11.07;;;;;;;29.69;55.37;95125.88;5053579;28;20446;-79
2023/06/21 07:41:57;;;;;;;12.33;11.20;;;;;;;29.76;51.99;95121.13;5053482;28;20449;-78
2023/06/21 07:44:24;;;;;;;14.23;11.43;;;;;;;29.70;51.39;95127.53;5053634;28;20962;-83
2023/06/21 07:46:52;;;;;;;12.93;11.63;;;;;;;29.51;52.54;95123.41;5053929;28;20463;-82
2023/06/21 07:49:20;;;;;;;18.43;11.60;;;;;;;29.67;52.47;95128.00;5053924;28;20414;-82
2023/06/21 07:51:47;;;;;;;12.55;11.25;;;;;;;29.78;52.94;95131.69;5053316;28;20453;-84
2023/06/21 07:54:14;;;;;;;14.83;11.97;;;;;;;29.88;51.59;95129.19;5053595;28;20219;-80
2023/06/21 07:56:41;;;;;;;13.30;11.83;;;;;;;29.50;51.91;95119.06;5053501;28;20512;-83
2023/06/21 07:59:08;;;;;;;12.60;10.80;;;;;;;29.62;53.37;95121.69;5053742;28;20430;-80
2023/06/21 08:01:35;;;;;;;13.43;10.37;;;;;;;29.31;52.45;95126.50;5053408;28;20433;-79
2023/06/21 08:04:03;;;;;;;13.57;10.60;;;;;;;28.97;52.54;95126.38;5053488;28;20474;-81
2023/06/21 08:06:31;;;;;;;12.27;11.13;;;;;;;28.88;53.29;95125.06;5053926;28;20844;-81
2023/06/21 08:08:58;;;;;;;12.53;11.27;;;;;;;28.95;54.14;95120.38;5053268;28;20937;-78
2023/06/21 08:11:25;;;;;;;18.63;13.00;;;;;;;29.17;54.42;95125.13;5053371;28;20458;-78
2023/06/21 08:13:51;;;;;;;17.97;13.20;;;;;;;29.08;53.32;95127.38;5053592;28;20837;-79
2023/06/21 08:16:18;;;;;;;14.77;12.37;;;;;;;29.37;53.94;95120.13;5054089;28;20442;-80
2023/06/21 08:18:45;;;;;;;18.33;14.03;;;;;;;28.82;53.65;95117.06;5053520;28;20442;-80
2023/06/21 08:21:12;;;;;;;34.40;18.83;;;;;;;28.99;54.19;95110.72;5053539;28;20462;-80
2023/06/21 08:23:40;;;;;;;32.67;20.10;;;;;;;29.29;54.09;95105.13;5053018;28;20452;-79
2023/06/21 08:26:07;;;;;;;133.97;107.87;;;;;;;29.51;53.01;95108.00;5053397;28;20438;-77
2023/06/21 08:28:34;;;;;;;86.80;54.47;;;;;;;29.77;53.64;95111.94;5053437;28;20942;-78
2023/06/21 08:31:01;;;;;;;58.83;36.90;;;;;;;30.00;53.64;95112.88;5053669;28;20446;-80
2023/06/21 08:33:28;;;;;;;29.87;21.63;;;;;;;30.19;53.44;95111.59;5018729;28;20453;-79
2023/06/21 08:35:54;;;;;;;89.20;61.03;;;;;;;30.14;51.66;95115.06;5018030;28;20513;-80
2023/06/21 08:38:21;;;;;;;33.53;24.43;;;;;;;30.27;52.66;95108.47;5052914;28;20441;-79
2023/06/21 08:40:49;;;;;;;16.20;13.67;;;;;;;30.29;53.66;95113.63;5056079;28;20453;-79
2023/06/21 08:43:16;;;;;;;20.57;15.70;;;;;;;30.07;53.21;95114.41;5056659;28;20927;-77
2023/06/21 08:45:44;;;;;;;14.60;13.17;;;;;;;30.13;53.72;95123.44;5038264;28;20446;-80
2023/06/21 08:48:12;;;;;;;18.60;13.80;;;;;;;30.17;53.69;95109.16;5056739;28;20924;-79
2023/06/21 08:50:43;;;;;;;15.97;12.93;;;;;;;29.96;53.95;95112.56;5056698;28;20433;-81
2023/06/21 08:53:14;;;;;;;19.80;13.57;;;;;;;30.10;52.72;95113.91;5056718;28;20445;-80
2023/06/21 08:55:42;;;;;;;18.93;13.60;;;;;;;30.24;53.12;95100.84;5056864;28;20563;-80
2023/06/21 08:58:14;;;;;;;51.27;33.67;;;;;;;30.11;53.72;95096.59;5056623;28;20454;-80
2023/06/21 09:00:47;;;;;;;18.20;13.90;;;;;;;30.02;52.24;95108.84;5057057;28;20438;-79
2023/06/21 09:03:19;;;;;;;113.37;71.90;;;;;;;29.88;52.75;95102.13;5056962;28;20469;-80
2023/06/21 09:05:51;;;;;;;17.70;15.40;;;;;;;29.98;51.99;95105.00;5056847;28;20446;-80
2023/06/21 09:08:18;;;;;;;298.27;173.13;;;;;;;29.89;52.85;95107.31;5056667;28;20438;-80
2023/06/21 09:10:50;;;;;;;81.37;49.57;;;;;;;29.89;51.53;95109.19;5056473;28;20446;-80
2023/06/21 09:13:19;;;;;;;43.50;29.77;;;;;;;29.94;52.71;95098.44;5057118;28;20441;-80
2023/06/21 09:15:48;;;;;;;36.47;24.83;;;;;;;30.01;53.05;95093.69;5056673;28;20476;-79
2023/06/21 09:18:16;;;;;;;20.43;13.13;;;;;;;30.11;51.98;95099.31;5056893;28;20925;-80
2023/06/21 09:20:46;;;;;;;30.83;20.40;;;;;;;30.04;50.07;95093.22;5056757;28;20441;-79
2023/06/21 09:23:13;;;;;;;35.17;22.03;;;;;;;30.03;51.42;95096.16;5056380;28;20441;-80
2023/06/21 09:25:42;;;;;;;33.90;23.43;;;;;;;30.05;52.74;95088.63;5056686;28;20445;-78
2023/06/21 09:28:09;;;;;;;20.57;15.40;;;;;;;30.08;50.76;95086.28;5056348;28;20911;-79
2023/06/21 09:30:37;;;;;;;18.57;16.37;;;;;;;30.02;50.34;95098.03;5056412;28;20445;-80
2023/06/21 09:33:04;;;;;;;35.07;19.63;;;;;;;29.84;50.12;95095.59;5055964;28;20626;-79
2023/06/21 09:35:31;;;;;;;45.80;29.50;;;;;;;29.75;52.25;95084.31;5056120;28;20485;-80
2023/06/21 09:37:58;;;;;;;42.37;30.73;;;;;;;29.74;54.26;95096.22;5055603;28;20791;-79
2023/06/21 09:40:25;;;;;;;18.23;14.30;;;;;;;29.81;53.06;95093.38;5056191;28;20446;-80
2023/06/21 09:42:51;;;;;;;25.53;15.33;;;;;;;29.87;52.01;95098.63;5055962;28;20933;-81
2023/06/21 09:45:20;;;;;;;20.90;12.60;;;;;;;29.88;50.32;95088.59;5056289;28;20434;-80
2023/06/21 09:47:48;;;;;;;27.63;19.40;;;;;;;29.63;53.59;95089.00;5056002;28;20449;-79
2023/06/21 09:50:15;;;;;;;21.53;13.60;;;;;;;29.73;50.70;95096.44;5055770;28;20418;-78
2023/06/21 09:52:43;;;;;;;16.53;14.90;;;;;;;29.65;51.78;95083.34;5055897;28;20449;-79
2023/06/21 09:55:13;;;;;;;13.20;11.90;;;;;;;29.68;48.31;95082.84;5055440;28;20546;-80
2023/06/21 09:57:40;;;;;;;21.27;17.40;;;;;;;29.70;51.63;95078.81;5055734;28;20450;-79
2023/06/21 10:00:08;;;;;;;13.40;12.10;;;;;;;29.77;48.33;95081.38;5055560;28;20432;-78
2023/06/21 10:02:39;;;;;;;15.63;12.43;;;;;;;29.83;46.56;95080.41;5055174;28;20542;-81
2023/06/21 10:05:15;;;;;;;19.87;11.40;;;;;;;29.88;44.67;95085.91;5055384;28;20825;-79
2023/06/21 10:07:44;;;;;;;13.57;10.93;;;;;;;29.94;45.33;95081.38;5055637;28;20456;-79
2023/06/21 10:10:12;;;;;;;12.93;10.67;;;;;;;29.99;45.44;95078.75;5055343;28;20970;-79
2023/06/21 10:12:39;;;;;;;14.20;12.77;;;;;;;29.94;46.16;95082.22;5053379;28;20446;-79
2023/06/21 10:15:09;;;;;;;14.10;11.57;;;;;;;29.97;46.76;95081.72;5055470;28;20809;-80
2023/06/21 10:17:36;;;;;;;18.50;13.07;;;;;;;30.03;46.21;95088.88;5055268;28;20533;-79
2023/06/21 10:20:05;;;;;;;13.77;12.47;;;;;;;30.06;45.30;95085.66;5036436;28;20450;-79
2023/06/21 10:22:36;;;;;;;19.07;14.57;;;;;;;30.09;46.55;95085.22;5020102;28;20481;-80
2023/06/21 10:25:05;;;;;;;14.17;12.63;;;;;;;30.13;46.31;95080.13;5055081;28;20445;-79
2023/06/21 10:27:34;;;;;;;13.07;10.83;;;;;;;30.12;44.84;95076.59;5019956;28;20809;-80
2023/06/21 10:30:04;;;;;;;16.70;12.63;;;;;;;30.13;44.80;95070.09;5055008;28;20442;-79
2023/06/21 10:32:35;;;;;;;11.93;10.70;;;;;;;30.18;44.21;95078.31;5020418;28;20449;-80
2023/06/21 10:35:07;;;;;;;12.73;11.37;;;;;;;30.20;43.52;95070.75;5054283;28;20539;-80
2023/06/21 10:37:48;;;;;;;12.93;11.30;;;;;;;30.16;43.89;95075.03;5054968;28;20457;-80
2023/06/21 10:40:16;;;;;;;19.23;13.70;;;;;;;29.96;48.34;95080.06;5054708;28;20532;-79
2023/06/21 10:42:43;;;;;;;11.43;10.37;;;;;;;30.05;45.87;95077.78;5055023;28;20472;-79
2023/06/21 10:45:11;;;;;;;12.07;10.97;;;;;;;30.06;44.31;95072.13;5054445;28;20453;-79
2023/06/21 10:47:39;;;;;;;12.73;11.53;;;;;;;30.11;44.29;95071.41;5054364;28;20430;-80
2023/06/21 10:50:07;;;;;;;14.60;10.77;;;;;;;30.16;46.27;95075.03;5054215;28;20452;-79
2023/06/21 10:52:36;;;;;;;11.57;10.33;;;;;;;30.22;46.10;95070.50;5054444;28;20955;-79
2023/06/21 10:55:04;;;;;;;12.27;10.97;;;;;;;30.26;44.87;95077.06;5054357;28;20477;-79
2023/06/21 10:57:33;;;;;;;20.97;13.70;;;;;;;30.29;45.59;95070.31;5035794;28;20515;-80
2023/06/21 11:00:02;;;;;;;12.87;11.67;;;;;;;30.13;44.82;95072.81;5054298;28;20477;-79
2023/06/21 11:02:30;;;;;;;13.50;11.90;;;;;;;30.19;44.01;95082.66;5053909;28;20453;-79
2023/06/21 11:05:17;;;;;;;12.03;10.53;;;;;;;30.27;45.34;95069.75;5054062;28;20473;-79
2023/06/21 11:07:54;;;;;;;12.77;11.50;;;;;;;30.20;44.25;95070.75;5054417;28;20457;-79
2023/06/21 11:10:23;;;;;;;13.47;10.97;;;;;;;30.01;43.35;95069.31;5054575;28;20457;-79
2023/06/21 11:12:55;;;;;;;11.17;10.10;;;;;;;29.87;44.12;95070.72;5054175;28;20504;-79
2023/06/21 11:15:23;;;;;;;14.83;12.47;;;;;;;29.84;44.74;95065.81;5053539;28;20547;-80
2023/06/21 11:17:59;;;;;;;12.60;10.73;;;;;;;29.91;43.65;95069.16;5054181;28;20429;-80
2023/06/21 11:20:26;;;;;;;11.53;10.30;;;;;;;29.94;45.11;95063.25;5054016;28;20465;-81
2023/06/21 11:22:59;;;;;;;13.67;12.27;;;;;;;29.99;43.97;95063.34;5054282;28;20457;-80
2023/06/21 11:25:27;;;;;;;13.70;11.03;;;;;;;30.03;43.11;95056.38;5035266;28;20476;-81
2023/06/21 11:28:26;;;;;;;12.67;11.20;;;;;;;29.98;42.72;95061.69;5053890;28;20441;-79
2023/06/21 11:31:24;;;;;;;12.13;11.00;;;;;;;29.98;43.15;95060.88;5012229;28;20455;-80
2023/06/21 11:33:54;;;;;;;17.43;12.97;;;;;;;30.02;43.86;95060.13;4953306;29;20458;-80
2023/06/21 11:36:26;;;;;;;11.50;10.30;;;;;;;30.07;43.20;95057.56;4905875;29;20537;-79
2023/06/21 11:39:20;;;;;;;19.43;13.03;;;;;;;29.99;46.11;95049.81;4953479;29;20450;-80
2023/06/21 11:42:02;;;;;;;14.80;11.37;;;;;;;30.06;44.83;95055.91;4953216;29;20456;-79
2023/06/21 11:44:33;;;;;;;21.70;12.77;;;;;;;30.09;44.04;95046.50;4907415;29;20823;-79
2023/06/21 11:47:20;;;;;;;23.93;13.40;;;;;;;30.14;46.02;95049.28;4953351;29;20911;-79
2023/06/21 11:49:52;;;;;;;24.47;13.83;;;;;;;30.04;42.99;95044.50;4859544;29;20458;-79